CST,Max TemperatureF,Mean TemperatureF,Min TemperatureF,Max Dew PointF,MeanDew PointF,Min DewpointF,Max Humidity, Mean Humidity, Min Humidity, Max Sea Level PressureIn, Mean Sea Level PressureIn, Min Sea Level PressureIn, Max VisibilityMiles, Mean VisibilityMiles, Min VisibilityMiles, Max Wind SpeedMPH, Mean Wind SpeedMPH, Max Gust SpeedMPH,PrecipitationIn, CloudCover, Events, WindDirDegrees
2013-2-1,36,22,7,30,18,1,89,75,61,30.43,30.21,30.06,10,10,10,18,10,28,0.00,3,,211
2013-2-2,53,41,29,33,28,25,92,64,35,30.25,30.17,30.10,10,10,10,23,12,29,0.00,1,,287
2013-2-3,46,35,24,30,26,21,88,69,49,30.26,30.07,29.81,10,10,10,18,7,25,0.00,0,,225
2013-2-4,36,32,28,28,26,25,92,81,70,30.04,29.94,29.83,10,9,4,20,9,23,0.00,3,,354
2013-2-5,53,40,26,31,27,25,92,62,32,30.06,30.00,29.90,10,10,10,17,8,20,0.00,1,,294
2013-2-6,54,44,33,42,34,27,100,79,58,29.99,29.89,29.80,10,7,0,20,8,26,0.00,2,Fog,168
2013-2-7,51,37,23,37,29,21,100,70,39,30.26,30.10,29.90,10,9,2,22,12,26,0.00,2,,16
2013-2-8,35,30,24,29,27,24,100,88,75,30.31,30.19,30.06,10,4,0,18,10,25,T,4,Fog-Snow,144
2013-2-9,52,41,30,39,33,28,92,73,54,30.04,29.78,29.53,10,8,4,23,15,33,0.05,4,Rain,163
2013-2-10,41,36,31,39,31,20,100,82,63,29.97,29.46,29.19,10,8,2,41,23,52,0.01,7,Rain,250
2013-2-11,36,29,22,19,18,15,81,64,47,30.20,30.15,29.99,10,10,10,29,12,35,0.00,0,,308
2013-2-12,48,35,21,21,17,11,75,48,21,30.17,30.05,29.96,10,10,10,18,7,23,0.00,0,,267
2013-2-13,53,39,25,29,24,19,88,61,33,29.96,29.88,29.79,10,10,10,21,11,24,0.00,1,,280
2013-2-14,43,32,20,30,23,16,85,62,39,30.37,30.12,29.91,10,10,10,36,18,44,0.00,1,,319
2013-2-15,35,25,14,21,14,10,92,66,39,30.43,30.39,30.33,10,10,8,29,12,36,T,2,Snow,312
2013-2-16,52,32,12,29,19,9,92,65,38,30.40,30.12,29.97,10,8,2,15,6,21,T,4,Snow,227
2013-2-17,62,42,22,29,25,21,92,58,23,29.97,29.75,29.54,10,10,10,20,6,25,0.00,0,,182
2013-2-18,45,33,20,30,22,16,77,61,44,30.16,29.86,29.55,10,10,10,33,20,40,0.00,3,,341
2013-2-19,31,23,14,17,8,0,80,54,27,30.38,30.31,30.18,10,10,10,20,10,24,0.00,0,,12
2013-2-20,23,17,10,18,12,1,92,69,45,30.35,30.15,30.05,10,5,1,20,13,24,0.07,7,Snow,103
2013-2-21,19,17,15,16,14,10,92,80,67,30.14,29.96,29.81,10,2,0,26,16,32,0.72,8,Fog-Snow,52
2013-2-22,22,12,2,16,10,0,96,84,71,30.12,30.02,29.86,10,8,1,16,9,20,T,2,Snow,313
2013-2-23,34,20,6,24,15,5,92,79,66,30.05,29.93,29.85,10,9,5,13,7,17,0.00,0,,210
2013-2-24,33,21,9,27,21,9,100,86,72,30.11,29.95,29.83,6,3,0,15,7,17,0.03,5,Fog-Snow,33
2013-2-25,34,26,18,28,25,17,100,89,78,30.11,30.03,29.93,10,4,0,18,10,21,0.02,6,Fog-Snow,15
2013-2-26,28,23,17,25,21,16,100,91,81,30.02,29.90,29.82,8,3,0,17,12,21,0.00,7,Fog,358
2013-2-27,36,29,22,27,23,19,92,77,61,30.20,30.10,29.93,10,10,8,28,18,32,0.00,4,,336
2013-2-28,33,30,27,25,24,21,85,79,72,30.28,30.23,30.13,10,10,8,25,15,29,0.00,8,,349